Mira Loma, California
Current Conditions -  °F | °C
As of 5:53 AM on Monday 24 Nov 2014 (Local Time) from KRAL Reporting Station
Clear Clear  
Wind Chill: 47°   Ceiling: Unl
Heat Index: 49°   Visibility: 10mi
Dew Point: 19°   Wind: 6mph
Humidity: 31%   Direction: 90°E
Pressure: 30.18"   Gusts: NA
Location:  33.99°N, 117.51°W
Report Text: KRAL 241353Z AUTO 09005KT 10SM CLR 09/M07 A3018 RMK AO2 SLP210 T00941072
Loading
Personal Weather Stations






























Interactive Weather Map New forecast layout! Learn more

10-Day Weather Forecast

Advertisements
Track Severe Weather on mobile